sensor_id;sensor_type;location;lat;lon;timestamp;temperature;humidity
23731;DHT22;12046;44.702;10.622;2023-03-13T00:01:27;11.40;99.90
23731;DHT22;12046;44.702;10.622;2023-03-13T00:03:53;11.30;99.90
23731;DHT22;12046;44.702;10.622;2023-03-13T00:06:22;11.30;99.90
23731;DHT22;12046;44.702;10.622;2023-03-13T00:08:48;11.30;99.90
23731;DHT22;12046;44.702;10.622;2023-03-13T00:11:15;11.30;99.90
23731;DHT22;12046;44.702;10.622;2023-03-13T00:13:41;11.30;99.90
23731;DHT22;12046;44.702;10.622;2023-03-13T00:16:17;11.30;99.90
23731;DHT22;12046;44.702;10.622;2023-03-13T00:18:47;11.20;99.90
23731;DHT22;12046;44.702;10.622;2023-03-13T00:21:14;11.20;99.90
23731;DHT22;12046;44.702;10.622;2023-03-13T00:23:40;11.20;99.90
23731;DHT22;12046;44.702;10.622;2023-03-13T00:26:09;11.20;99.90
23731;DHT22;12046;44.702;10.622;2023-03-13T00:28:36;11.20;99.90
23731;DHT22;12046;44.702;10.622;2023-03-13T00:33:36;11.20;99.90
23731;DHT22;12046;44.702;10.622;2023-03-13T00:36:07;11.10;99.90
23731;DHT22;12046;44.702;10.622;2023-03-13T00:38:33;11.10;99.90
23731;DHT22;12046;44.702;10.622;2023-03-13T00:41:08;11.00;99.90
23731;DHT22;12046;44.702;10.622;2023-03-13T00:43:37;11.10;99.90
23731;DHT22;12046;44.702;10.622;2023-03-13T00:46:03;11.00;99.90
23731;DHT22;12046;44.702;10.622;2023-03-13T00:48:29;11.00;99.90
23731;DHT22;12046;44.702;10.622;2023-03-13T00:50:56;11.00;99.90
23731;DHT22;12046;44.702;10.622;2023-03-13T00:53:22;11.00;99.90
23731;DHT22;12046;44.702;10.622;2023-03-13T00:55:56;11.00;99.90
23731;DHT22;12046;44.702;10.622;2023-03-13T00:58:24;10.90;99.90
23731;DHT22;12046;44.702;10.622;2023-03-13T01:00:51;10.90;99.90
23731;DHT22;12046;44.702;10.622;2023-03-13T01:03:17;10.90;99.90
23731;DHT22;12046;44.702;10.622;2023-03-13T01:05:43;10.90;99.90
23731;DHT22;12046;44.702;10.622;2023-03-13T01:08:09;10.90;99.90
23731;DHT22;12046;44.702;10.622;2023-03-13T01:10:34;10.80;99.90
23731;DHT22;12046;44.702;10.622;2023-03-13T01:13:00;10.80;99.90
23731;DHT22;12046;44.702;10.622;2023-03-13T01:15:26;10.80;99.90
23731;DHT22;12046;44.702;10.622;2023-03-13T01:17:52;10.80;99.90
23731;DHT22;12046;44.702;10.622;2023-03-13T01:20:17;10.70;99.90
23731;DHT22;12046;44.702;10.622;2023-03-13T01:22:43;10.70;99.90
23731;DHT22;12046;44.702;10.622;2023-03-13T01:25:09;10.70;99.90
23731;DHT22;12046;44.702;10.622;2023-03-13T01:27:35;10.60;99.90
23731;DHT22;12046;44.702;10.622;2023-03-13T01:30:01;10.60;99.90
23731;DHT22;12046;44.702;10.622;2023-03-13T01:32:27;10.50;99.90
23731;DHT22;12046;44.702;10.622;2023-03-13T01:34:53;10.50;99.90
23731;DHT22;12046;44.702;10.622;2023-03-13T01:37:19;10.40;99.90
23731;DHT22;12046;44.702;10.622;2023-03-13T01:39:45;10.40;99.90
23731;DHT22;12046;44.702;10.622;2023-03-13T01:42:11;10.30;99.90
23731;DHT22;12046;44.702;10.622;2023-03-13T01:44:51;10.20;99.90
23731;DHT22;12046;44.702;10.622;2023-03-13T01:47:17;10.20;99.90
23731;DHT22;12046;44.702;10.622;2023-03-13T01:49:43;10.10;99.90
23731;DHT22;12046;44.702;10.622;2023-03-13T01:52:17;10.10;99.90
23731;DHT22;12046;44.702;10.622;2023-03-13T01:54:52;10.00;99.90
23731;DHT22;12046;44.702;10.622;2023-03-13T01:57:23;9.90;99.90
23731;DHT22;12046;44.702;10.622;2023-03-13T02:00:03;9.90;1.00
23731;DHT22;12046;44.702;10.622;2023-03-13T02:02:32;9.80;1.00
23731;DHT22;12046;44.702;10.622;2023-03-13T02:05:01;9.80;1.00
23731;DHT22;12046;44.702;10.622;2023-03-13T02:07:32;9.80;1.00
23731;DHT22;12046;44.702;10.622;2023-03-13T02:10:00;9.80;1.00
23731;DHT22;12046;44.702;10.622;2023-03-13T02:12:31;9.80;1.00
23731;DHT22;12046;44.702;10.622;2023-03-13T02:15:01;9.80;1.00
23731;DHT22;12046;44.702;10.622;2023-03-13T02:17:29;9.90;1.00
23731;DHT22;12046;44.702;10.622;2023-03-13T02:19:55;9.90;1.00
23731;DHT22;12046;44.702;10.622;2023-03-13T02:22:55;10.00;1.00
23731;DHT22;12046;44.702;10.622;2023-03-13T02:30:18;10.30;1.00
23731;DHT22;12046;44.702;10.622;2023-03-13T02:32:45;10.30;1.00
23731;DHT22;12046;44.702;10.622;2023-03-13T02:35:16;10.40;1.00
23731;DHT22;12046;44.702;10.622;2023-03-13T02:37:45;10.40;1.00
23731;DHT22;12046;44.702;10.622;2023-03-13T02:40:15;10.50;1.00
23731;DHT22;12046;44.702;10.622;2023-03-13T02:42:47;10.50;1.00
23731;DHT22;12046;44.702;10.622;2023-03-13T02:45:15;10.50;1.00
23731;DHT22;12046;44.702;10.622;2023-03-13T02:47:41;10.50;1.00
23731;DHT22;12046;44.702;10.622;2023-03-13T02:50:07;10.50;1.00
23731;DHT22;12046;44.702;10.622;2023-03-13T02:53:05;10.50;1.00
23731;DHT22;12046;44.702;10.622;2023-03-13T02:55:40;10.50;1.00
23731;DHT22;12046;44.702;10.622;2023-03-13T02:58:06;10.40;1.00
23731;DHT22;12046;44.702;10.622;2023-03-13T03:00:32;10.40;1.00
23731;DHT22;12046;44.702;10.622;2023-03-13T03:02:58;10.40;1.00
23731;DHT22;12046;44.702;10.622;2023-03-13T03:05:27;10.30;1.00
23731;DHT22;12046;44.702;10.622;2023-03-13T03:07:53;10.30;1.00
23731;DHT22;12046;44.702;10.622;2023-03-13T03:10:22;10.30;1.00
23731;DHT22;12046;44.702;10.622;2023-03-13T03:12:47;10.30;1.00
23731;DHT22;12046;44.702;10.622;2023-03-13T03:15:16;10.30;1.00
23731;DHT22;12046;44.702;10.622;2023-03-13T03:17:42;10.20;1.00
23731;DHT22;12046;44.702;10.622;2023-03-13T03:20:08;10.20;1.00
23731;DHT22;12046;44.702;10.622;2023-03-13T03:22:37;10.20;1.00
23731;DHT22;12046;44.702;10.622;2023-03-13T03:25:06;10.20;1.00
23731;DHT22;12046;44.702;10.622;2023-03-13T03:27:41;10.20;1.00
23731;DHT22;12046;44.702;10.622;2023-03-13T03:30:07;10.20;1.00
23731;DHT22;12046;44.702;10.622;2023-03-13T03:32:37;10.20;1.00
23731;DHT22;12046;44.702;10.622;2023-03-13T03:35:03;10.20;1.00
23731;DHT22;12046;44.702;10.622;2023-03-13T03:37:29;10.10;1.00
23731;DHT22;12046;44.702;10.622;2023-03-13T03:39:54;10.10;1.00
23731;DHT22;12046;44.702;10.622;2023-03-13T03:42:20;10.10;1.00
23731;DHT22;12046;44.702;10.622;2023-03-13T03:44:46;10.00;1.00
23731;DHT22;12046;44.702;10.622;2023-03-13T03:47:12;10.00;1.00
23731;DHT22;12046;44.702;10.622;2023-03-13T03:49:37;9.90;1.00
23731;DHT22;12046;44.702;10.622;2023-03-13T03:52:03;9.90;1.00
23731;DHT22;12046;44.702;10.622;2023-03-13T03:54:29;9.80;1.00
23731;DHT22;12046;44.702;10.622;2023-03-13T03:56:55;9.80;1.00
23731;DHT22;12046;44.702;10.622;2023-03-13T03:59:21;9.80;1.00
23731;DHT22;12046;44.702;10.622;2023-03-13T04:01:47;9.80;1.00
23731;DHT22;12046;44.702;10.622;2023-03-13T04:04:13;9.80;1.00
23731;DHT22;12046;44.702;10.622;2023-03-13T04:06:39;9.70;1.00
23731;DHT22;12046;44.702;10.622;2023-03-13T04:09:05;9.70;1.00
23731;DHT22;12046;44.702;10.622;2023-03-13T04:11:30;9.70;1.00
23731;DHT22;12046;44.702;10.622;2023-03-13T04:13:56;9.60;1.00
23731;DHT22;12046;44.702;10.622;2023-03-13T04:16:23;9.60;1.00
23731;DHT22;12046;44.702;10.622;2023-03-13T04:18:53;9.60;1.00
23731;DHT22;12046;44.702;10.622;2023-03-13T04:21:19;9.60;1.00
23731;DHT22;12046;44.702;10.622;2023-03-13T04:23:45;9.60;1.00
23731;DHT22;12046;44.702;10.622;2023-03-13T04:26:11;9.60;1.00
23731;DHT22;12046;44.702;10.622;2023-03-13T04:28:37;9.60;1.00
23731;DHT22;12046;44.702;10.622;2023-03-13T04:31:03;9.60;1.00
23731;DHT22;12046;44.702;10.622;2023-03-13T04:33:28;9.50;1.00
23731;DHT22;12046;44.702;10.622;2023-03-13T04:35:54;9.40;1.00
23731;DHT22;12046;44.702;10.622;2023-03-13T04:38:20;9.30;1.00
23731;DHT22;12046;44.702;10.622;2023-03-13T04:40:46;9.20;1.00
23731;DHT22;12046;44.702;10.622;2023-03-13T04:43:13;9.00;1.00
23731;DHT22;12046;44.702;10.622;2023-03-13T04:45:38;9.00;1.00
23731;DHT22;12046;44.702;10.622;2023-03-13T04:48:04;8.90;1.00
23731;DHT22;12046;44.702;10.622;2023-03-13T04:50:30;8.90;1.00
23731;DHT22;12046;44.702;10.622;2023-03-13T04:52:56;8.80;1.00
23731;DHT22;12046;44.702;10.622;2023-03-13T04:55:22;8.80;1.00
23731;DHT22;12046;44.702;10.622;2023-03-13T04:57:47;8.70;1.00
23731;DHT22;12046;44.702;10.622;2023-03-13T05:00:14;8.70;1.00
23731;DHT22;12046;44.702;10.622;2023-03-13T05:02:39;8.80;1.00
23731;DHT22;12046;44.702;10.622;2023-03-13T05:05:05;8.80;1.00
23731;DHT22;12046;44.702;10.622;2023-03-13T05:07:31;8.80;1.00
23731;DHT22;12046;44.702;10.622;2023-03-13T05:09:57;8.80;1.00
23731;DHT22;12046;44.702;10.622;2023-03-13T05:12:23;8.90;1.00
23731;DHT22;12046;44.702;10.622;2023-03-13T05:14:48;8.80;1.00
23731;DHT22;12046;44.702;10.622;2023-03-13T05:17:15;8.80;1.00
23731;DHT22;12046;44.702;10.622;2023-03-13T05:19:42;8.80;1.00
23731;DHT22;12046;44.702;10.622;2023-03-13T05:22:17;8.80;1.00
23731;DHT22;12046;44.702;10.622;2023-03-13T05:24:42;8.80;1.00
23731;DHT22;12046;44.702;10.622;2023-03-13T05:27:08;8.80;1.00
23731;DHT22;12046;44.702;10.622;2023-03-13T05:29:34;8.80;1.00
23731;DHT22;12046;44.702;10.622;2023-03-13T05:32:00;8.90;1.00
23731;DHT22;12046;44.702;10.622;2023-03-13T05:34:25;8.90;1.00
23731;DHT22;12046;44.702;10.622;2023-03-13T05:37:14;9.00;1.00
23731;DHT22;12046;44.702;10.622;2023-03-13T05:39:40;9.00;1.00
23731;DHT22;12046;44.702;10.622;2023-03-13T05:42:06;9.00;1.00
23731;DHT22;12046;44.702;10.622;2023-03-13T05:44:32;9.00;1.00
23731;DHT22;12046;44.702;10.622;2023-03-13T05:46:58;9.00;1.00
23731;DHT22;12046;44.702;10.622;2023-03-13T05:49:23;9.10;1.00
23731;DHT22;12046;44.702;10.622;2023-03-13T05:51:49;9.10;1.00
23731;DHT22;12046;44.702;10.622;2023-03-13T05:54:15;9.20;1.00
23731;DHT22;12046;44.702;10.622;2023-03-13T05:56:41;9.30;1.00
23731;DHT22;12046;44.702;10.622;2023-03-13T05:59:07;9.40;1.00
23731;DHT22;12046;44.702;10.622;2023-03-13T06:01:32;9.50;1.00
23731;DHT22;12046;44.702;10.622;2023-03-13T06:03:58;9.50;1.00
23731;DHT22;12046;44.702;10.622;2023-03-13T06:06:24;9.60;1.00
23731;DHT22;12046;44.702;10.622;2023-03-13T06:08:51;9.60;1.00
23731;DHT22;12046;44.702;10.622;2023-03-13T06:11:18;9.70;1.00
23731;DHT22;12046;44.702;10.622;2023-03-13T06:13:43;9.70;1.00
23731;DHT22;12046;44.702;10.622;2023-03-13T06:16:09;9.80;1.00
23731;DHT22;12046;44.702;10.622;2023-03-13T06:18:35;9.80;1.00
23731;DHT22;12046;44.702;10.622;2023-03-13T06:21:01;9.80;1.00
23731;DHT22;12046;44.702;10.622;2023-03-13T06:23:27;9.80;1.00
23731;DHT22;12046;44.702;10.622;2023-03-13T06:25:54;9.80;1.00
23731;DHT22;12046;44.702;10.622;2023-03-13T06:28:20;9.70;1.00
23731;DHT22;12046;44.702;10.622;2023-03-13T06:30:46;9.80;1.00
23731;DHT22;12046;44.702;10.622;2023-03-13T06:33:13;9.80;1.00
23731;DHT22;12046;44.702;10.622;2023-03-13T06:35:42;9.80;1.00
23731;DHT22;12046;44.702;10.622;2023-03-13T06:38:09;9.80;1.00
23731;DHT22;12046;44.702;10.622;2023-03-13T06:40:35;9.80;1.00
23731;DHT22;12046;44.702;10.622;2023-03-13T06:43:01;9.90;1.00
23731;DHT22;12046;44.702;10.622;2023-03-13T06:48:33;9.90;1.00
23731;DHT22;12046;44.702;10.622;2023-03-13T08:30:10;14.80;99.90
23731;DHT22;12046;44.702;10.622;2023-03-13T08:32:36;14.90;99.90
23731;DHT22;12046;44.702;10.622;2023-03-13T08:35:02;15.00;99.90
23731;DHT22;12046;44.702;10.622;2023-03-13T08:37:31;15.20;99.90
23731;DHT22;12046;44.702;10.622;2023-03-13T08:39:56;15.30;99.90
23731;DHT22;12046;44.702;10.622;2023-03-13T08:42:22;15.40;99.90
23731;DHT22;12046;44.702;10.622;2023-03-13T08:44:48;15.60;99.90
23731;DHT22;12046;44.702;10.622;2023-03-13T08:47:14;15.80;99.90
23731;DHT22;12046;44.702;10.622;2023-03-13T08:49:43;16.00;99.90
23731;DHT22;12046;44.702;10.622;2023-03-13T08:52:09;16.40;99.90
23731;DHT22;12046;44.702;10.622;2023-03-13T08:54:35;16.70;99.90
23731;DHT22;12046;44.702;10.622;2023-03-13T08:57:01;17.00;99.90
23731;DHT22;12046;44.702;10.622;2023-03-13T08:59:26;17.30;99.90
23731;DHT22;12046;44.702;10.622;2023-03-13T09:01:52;17.50;99.90
23731;DHT22;12046;44.702;10.622;2023-03-13T09:04:18;17.70;99.60
23731;DHT22;12046;44.702;10.622;2023-03-13T09:06:50;17.90;99.30
23731;DHT22;12046;44.702;10.622;2023-03-13T09:09:37;18.10;98.80
23731;DHT22;12046;44.702;10.622;2023-03-13T09:12:03;18.30;98.50
23731;DHT22;12046;44.702;10.622;2023-03-13T09:14:28;18.40;98.00
23731;DHT22;12046;44.702;10.622;2023-03-13T09:16:55;18.40;97.80
23731;DHT22;12046;44.702;10.622;2023-03-13T09:19:20;18.60;97.70
23731;DHT22;12046;44.702;10.622;2023-03-13T09:21:46;18.70;97.60
23731;DHT22;12046;44.702;10.622;2023-03-13T09:24:14;18.90;97.40
23731;DHT22;12046;44.702;10.622;2023-03-13T09:26:40;19.00;97.10
23731;DHT22;12046;44.702;10.622;2023-03-13T09:29:06;19.30;96.90
23731;DHT22;12046;44.702;10.622;2023-03-13T09:31:32;19.50;96.40
23731;DHT22;12046;44.702;10.622;2023-03-13T09:33:59;19.60;96.00
23731;DHT22;12046;44.702;10.622;2023-03-13T09:36:26;19.80;95.80
23731;DHT22;12046;44.702;10.622;2023-03-13T09:38:55;20.30;95.50
23731;DHT22;12046;44.702;10.622;2023-03-13T09:41:45;20.70;95.00
23731;DHT22;12046;44.702;10.622;2023-03-13T09:44:25;21.30;94.20
23731;DHT22;12046;44.702;10.622;2023-03-13T09:47:11;22.30;93.10
23731;DHT22;12046;44.702;10.622;2023-03-13T09:49:41;23.10;91.80
23731;DHT22;12046;44.702;10.622;2023-03-13T09:52:12;23.20;1.00
23731;DHT22;12046;44.702;10.622;2023-03-13T09:54:50;22.60;1.00
23731;DHT22;12046;44.702;10.622;2023-03-13T09:57:18;22.10;1.00
23731;DHT22;12046;44.702;10.622;2023-03-13T10:02:55;21.20;1.00
23731;DHT22;12046;44.702;10.622;2023-03-13T10:05:28;20.90;1.00
23731;DHT22;12046;44.702;10.622;2023-03-13T10:08:07;20.70;1.00
23731;DHT22;12046;44.702;10.622;2023-03-13T10:10:46;20.70;1.00
23731;DHT22;12046;44.702;10.622;2023-03-13T10:16:04;21.00;1.00
23731;DHT22;12046;44.702;10.622;2023-03-13T10:18:34;21.10;1.00
23731;DHT22;12046;44.702;10.622;2023-03-13T10:21:11;21.10;1.00
23731;DHT22;12046;44.702;10.622;2023-03-13T10:23:49;21.00;1.00
23731;DHT22;12046;44.702;10.622;2023-03-13T10:26:26;20.70;1.00
23731;DHT22;12046;44.702;10.622;2023-03-13T10:28:54;20.40;1.00
23731;DHT22;12046;44.702;10.622;2023-03-13T10:31:34;20.10;1.00
23731;DHT22;12046;44.702;10.622;2023-03-13T10:34:10;20.00;1.00
23731;DHT22;12046;44.702;10.622;2023-03-13T10:36:45;20.00;1.00
23731;DHT22;12046;44.702;10.622;2023-03-13T10:39:15;20.20;1.00
23731;DHT22;12046;44.702;10.622;2023-03-13T10:41:41;20.40;1.00
23731;DHT22;12046;44.702;10.622;2023-03-13T10:44:31;20.60;1.00
23731;DHT22;12046;44.702;10.622;2023-03-13T10:46:59;20.80;1.00
23731;DHT22;12046;44.702;10.622;2023-03-13T10:49:30;21.00;1.00
23731;DHT22;12046;44.702;10.622;2023-03-13T10:52:01;21.40;1.00
23731;DHT22;12046;44.702;10.622;2023-03-13T10:54:30;21.60;1.00
23731;DHT22;12046;44.702;10.622;2023-03-13T10:59:39;22.00;1.00
23731;DHT22;12046;44.702;10.622;2023-03-13T11:02:25;22.20;1.00
23731;DHT22;12046;44.702;10.622;2023-03-13T11:04:51;22.50;99.90
23731;DHT22;12046;44.702;10.622;2023-03-13T11:07:29;22.70;1.00
23731;DHT22;12046;44.702;10.622;2023-03-13T11:10:18;23.10;99.90
23731;DHT22;12046;44.702;10.622;2023-03-13T11:12:50;23.40;99.90
23731;DHT22;12046;44.702;10.622;2023-03-13T11:15:28;23.80;99.90
23731;DHT22;12046;44.702;10.622;2023-03-13T11:18:05;24.00;99.90
23731;DHT22;12046;44.702;10.622;2023-03-13T11:20:38;24.00;99.90
23731;DHT22;12046;44.702;10.622;2023-03-13T11:36:52;22.40;99.90
23731;DHT22;12046;44.702;10.622;2023-03-13T11:40:02;22.00;99.90
23731;DHT22;12046;44.702;10.622;2023-03-13T11:45:32;21.90;99.90
23731;DHT22;12046;44.702;10.622;2023-03-13T11:48:15;22.00;99.90
23731;DHT22;12046;44.702;10.622;2023-03-13T11:51:00;22.20;99.90
23731;DHT22;12046;44.702;10.622;2023-03-13T11:56:20;22.50;99.90
23731;DHT22;12046;44.702;10.622;2023-03-13T11:58:59;22.90;99.90
23731;DHT22;12046;44.702;10.622;2023-03-13T12:01:31;23.20;99.90
23731;DHT22;12046;44.702;10.622;2023-03-13T12:04:14;23.50;99.90
23731;DHT22;12046;44.702;10.622;2023-03-13T12:07:03;23.60;99.90
23731;DHT22;12046;44.702;10.622;2023-03-13T12:09:50;23.70;99.90
23731;DHT22;12046;44.702;10.622;2023-03-13T12:17:33;23.40;99.90
23731;DHT22;12046;44.702;10.622;2023-03-13T12:25:16;23.40;99.90
23731;DHT22;12046;44.702;10.622;2023-03-13T12:27:48;23.60;99.90
23731;DHT22;12046;44.702;10.622;2023-03-13T12:30:47;23.80;99.90
23731;DHT22;12046;44.702;10.622;2023-03-13T12:34:05;23.80;99.90
23731;DHT22;12046;44.702;10.622;2023-03-13T12:39:29;23.60;99.90
23731;DHT22;12046;44.702;10.622;2023-03-13T12:45:00;23.60;99.90
23731;DHT22;12046;44.702;10.622;2023-03-13T12:47:37;23.50;99.90
23731;DHT22;12046;44.702;10.622;2023-03-13T12:58:42;23.00;99.90
23731;DHT22;12046;44.702;10.622;2023-03-13T13:01:16;23.00;99.90
23731;DHT22;12046;44.702;10.622;2023-03-13T13:06:13;22.80;99.90
23731;DHT22;12046;44.702;10.622;2023-03-13T13:08:43;22.80;99.90
23731;DHT22;12046;44.702;10.622;2023-03-13T13:14:00;22.50;99.90
23731;DHT22;12046;44.702;10.622;2023-03-13T13:16:27;22.40;99.90
23731;DHT22;12046;44.702;10.622;2023-03-13T13:18:54;22.20;99.90
23731;DHT22;12046;44.702;10.622;2023-03-13T13:21:23;22.00;99.90
23731;DHT22;12046;44.702;10.622;2023-03-13T13:23:53;21.70;99.90
23731;DHT22;12046;44.702;10.622;2023-03-13T13:26:46;21.40;99.90
23731;DHT22;12046;44.702;10.622;2023-03-13T13:31:57;21.10;99.90
23731;DHT22;12046;44.702;10.622;2023-03-13T13:36:56;21.20;99.90
23731;DHT22;12046;44.702;10.622;2023-03-13T13:39:43;21.20;99.90
23731;DHT22;12046;44.702;10.622;2023-03-13T13:47:39;21.10;99.90
23731;DHT22;12046;44.702;10.622;2023-03-13T13:50:24;21.00;99.90
23731;DHT22;12046;44.702;10.622;2023-03-13T13:52:50;20.90;99.90
23731;DHT22;12046;44.702;10.622;2023-03-13T13:55:33;20.80;99.90
23731;DHT22;12046;44.702;10.622;2023-03-13T13:58:11;20.70;99.90
23731;DHT22;12046;44.702;10.622;2023-03-13T14:01:00;20.70;99.90
23731;DHT22;12046;44.702;10.622;2023-03-13T14:03:29;20.90;99.90
23731;DHT22;12046;44.702;10.622;2023-03-13T14:06:01;21.20;99.90
23731;DHT22;12046;44.702;10.622;2023-03-13T14:08:35;21.60;99.90
23731;DHT22;12046;44.702;10.622;2023-03-13T14:14:07;22.20;99.90
23731;DHT22;12046;44.702;10.622;2023-03-13T14:16:33;22.40;99.90
23731;DHT22;12046;44.702;10.622;2023-03-13T14:19:01;22.50;99.90
23731;DHT22;12046;44.702;10.622;2023-03-13T14:21:27;22.60;99.90
23731;DHT22;12046;44.702;10.622;2023-03-13T14:23:54;22.80;99.90
23731;DHT22;12046;44.702;10.622;2023-03-13T14:26:27;22.80;99.90
23731;DHT22;12046;44.702;10.622;2023-03-13T14:28:56;22.80;99.90
23731;DHT22;12046;44.702;10.622;2023-03-13T14:33:48;22.80;99.90
23731;DHT22;12046;44.702;10.622;2023-03-13T14:36:14;22.80;99.90
23731;DHT22;12046;44.702;10.622;2023-03-13T14:38:50;22.90;99.90
23731;DHT22;12046;44.702;10.622;2023-03-13T14:41:41;23.10;99.90
23731;DHT22;12046;44.702;10.622;2023-03-13T14:44:15;23.10;99.90
23731;DHT22;12046;44.702;10.622;2023-03-13T14:46:44;23.00;99.90
23731;DHT22;12046;44.702;10.622;2023-03-13T14:49:20;23.00;99.90
23731;DHT22;12046;44.702;10.622;2023-03-13T14:52:01;22.90;99.90
23731;DHT22;12046;44.702;10.622;2023-03-13T14:54:33;22.70;99.90
23731;DHT22;12046;44.702;10.622;2023-03-13T14:59:34;22.70;99.90
23731;DHT22;12046;44.702;10.622;2023-03-13T15:02:02;22.70;99.90
23731;DHT22;12046;44.702;10.622;2023-03-13T15:04:50;22.90;99.90
23731;DHT22;12046;44.702;10.622;2023-03-13T15:07:16;23.10;99.90
23731;DHT22;12046;44.702;10.622;2023-03-13T15:09:43;23.20;99.90
23731;DHT22;12046;44.702;10.622;2023-03-13T15:12:15;23.20;99.90
23731;DHT22;12046;44.702;10.622;2023-03-13T15:14:46;23.10;99.90
23731;DHT22;12046;44.702;10.622;2023-03-13T15:17:15;23.10;99.90
23731;DHT22;12046;44.702;10.622;2023-03-13T15:19:42;23.10;99.90
23731;DHT22;12046;44.702;10.622;2023-03-13T15:22:13;23.00;99.90
23731;DHT22;12046;44.702;10.622;2023-03-13T15:24:40;22.90;99.90
23731;DHT22;12046;44.702;10.622;2023-03-13T15:27:15;22.70;99.90
23731;DHT22;12046;44.702;10.622;2023-03-13T15:29:41;22.50;99.90
23731;DHT22;12046;44.702;10.622;2023-03-13T15:32:13;22.20;99.90
23731;DHT22;12046;44.702;10.622;2023-03-13T15:34:40;22.00;99.90
23731;DHT22;12046;44.702;10.622;2023-03-13T15:37:10;21.70;99.90
23731;DHT22;12046;44.702;10.622;2023-03-13T15:39:36;21.40;99.90
23731;DHT22;12046;44.702;10.622;2023-03-13T15:42:02;21.20;99.90
23731;DHT22;12046;44.702;10.622;2023-03-13T15:44:28;21.00;99.90
23731;DHT22;12046;44.702;10.622;2023-03-13T15:46:53;20.80;99.90
23731;DHT22;12046;44.702;10.622;2023-03-13T15:49:20;20.60;99.90
23731;DHT22;12046;44.702;10.622;2023-03-13T15:51:45;20.40;99.90
23731;DHT22;12046;44.702;10.622;2023-03-13T15:54:11;20.30;99.90
23731;DHT22;12046;44.702;10.622;2023-03-13T15:56:37;20.30;99.90
23731;DHT22;12046;44.702;10.622;2023-03-13T15:59:14;20.20;99.90
23731;DHT22;12046;44.702;10.622;2023-03-13T16:01:41;20.00;99.90
23731;DHT22;12046;44.702;10.622;2023-03-13T16:04:09;20.00;99.90
23731;DHT22;12046;44.702;10.622;2023-03-13T16:06:34;19.80;99.90
23731;DHT22;12046;44.702;10.622;2023-03-13T16:09:02;19.70;99.90
23731;DHT22;12046;44.702;10.622;2023-03-13T16:11:30;19.60;99.90
23731;DHT22;12046;44.702;10.622;2023-03-13T16:13:57;19.50;99.90
23731;DHT22;12046;44.702;10.622;2023-03-13T16:16:31;19.40;99.90
23731;DHT22;12046;44.702;10.622;2023-03-13T16:18:58;19.40;99.90
23731;DHT22;12046;44.702;10.622;2023-03-13T16:21:27;19.40;99.90
23731;DHT22;12046;44.702;10.622;2023-03-13T16:23:54;19.30;99.90
23731;DHT22;12046;44.702;10.622;2023-03-13T16:26:23;19.20;99.90
23731;DHT22;12046;44.702;10.622;2023-03-13T16:28:51;19.10;99.90
23731;DHT22;12046;44.702;10.622;2023-03-13T16:31:23;19.10;99.90
23731;DHT22;12046;44.702;10.622;2023-03-13T16:33:50;19.00;99.90
23731;DHT22;12046;44.702;10.622;2023-03-13T16:36:18;18.90;99.90
23731;DHT22;12046;44.702;10.622;2023-03-13T16:38:45;18.80;99.90
23731;DHT22;12046;44.702;10.622;2023-03-13T16:41:13;18.80;99.90
23731;DHT22;12046;44.702;10.622;2023-03-13T16:43:39;18.70;99.90
23731;DHT22;12046;44.702;10.622;2023-03-13T16:46:11;18.60;99.90
23731;DHT22;12046;44.702;10.622;2023-03-13T16:48:37;18.50;1.00
23731;DHT22;12046;44.702;10.622;2023-03-13T16:51:03;18.40;1.00
23731;DHT22;12046;44.702;10.622;2023-03-13T16:53:29;18.30;1.00
23731;DHT22;12046;44.702;10.622;2023-03-13T16:55:55;18.30;1.00
23731;DHT22;12046;44.702;10.622;2023-03-13T16:58:22;18.20;99.90
23731;DHT22;12046;44.702;10.622;2023-03-13T17:00:48;18.20;99.90
23731;DHT22;12046;44.702;10.622;2023-03-13T17:03:13;18.10;99.90
23731;DHT22;12046;44.702;10.622;2023-03-13T17:05:39;18.10;99.90
23731;DHT22;12046;44.702;10.622;2023-03-13T17:08:05;18.00;1.00
23731;DHT22;12046;44.702;10.622;2023-03-13T17:10:34;17.90;1.00
23731;DHT22;12046;44.702;10.622;2023-03-13T17:13:00;17.90;1.00
23731;DHT22;12046;44.702;10.622;2023-03-13T17:15:27;17.90;1.00
23731;DHT22;12046;44.702;10.622;2023-03-13T17:17:54;17.80;1.00
23731;DHT22;12046;44.702;10.622;2023-03-13T17:20:23;17.80;60.90
23731;DHT22;12046;44.702;10.622;2023-03-13T17:22:49;17.80;68.80
23731;DHT22;12046;44.702;10.622;2023-03-13T17:25:14;17.70;99.90
23731;DHT22;12046;44.702;10.622;2023-03-13T17:27:41;17.70;99.90
23731;DHT22;12046;44.702;10.622;2023-03-13T17:32:42;17.60;99.90
23731;DHT22;12046;44.702;10.622;2023-03-13T17:35:07;17.60;99.90
23731;DHT22;12046;44.702;10.622;2023-03-13T17:37:34;17.60;99.90
23731;DHT22;12046;44.702;10.622;2023-03-13T17:40:00;17.50;1.00
23731;DHT22;12046;44.702;10.622;2023-03-13T17:42:25;17.50;1.00
23731;DHT22;12046;44.702;10.622;2023-03-13T17:44:51;17.60;1.00
23731;DHT22;12046;44.702;10.622;2023-03-13T17:47:26;17.60;1.00
23731;DHT22;12046;44.702;10.622;2023-03-13T17:49:53;17.60;42.50
23731;DHT22;12046;44.702;10.622;2023-03-13T17:52:19;17.50;59.70
23731;DHT22;12046;44.702;10.622;2023-03-13T17:54:44;17.50;68.40
23731;DHT22;12046;44.702;10.622;2023-03-13T17:57:16;17.50;98.50
23731;DHT22;12046;44.702;10.622;2023-03-13T18:00:09;17.50;99.90
23731;DHT22;12046;44.702;10.622;2023-03-13T18:02:37;17.50;99.90
23731;DHT22;12046;44.702;10.622;2023-03-13T18:05:03;17.50;99.90
23731;DHT22;12046;44.702;10.622;2023-03-13T18:07:29;17.50;99.90
23731;DHT22;12046;44.702;10.622;2023-03-13T18:09:55;17.50;99.90
23731;DHT22;12046;44.702;10.622;2023-03-13T18:12:21;17.40;99.90
23731;DHT22;12046;44.702;10.622;2023-03-13T18:14:46;17.30;99.90
23731;DHT22;12046;44.702;10.622;2023-03-13T18:17:22;17.30;99.90
23731;DHT22;12046;44.702;10.622;2023-03-13T18:19:50;17.20;1.00
23731;DHT22;12046;44.702;10.622;2023-03-13T18:22:18;17.20;1.00
23731;DHT22;12046;44.702;10.622;2023-03-13T18:24:46;17.20;37.50
23731;DHT22;12046;44.702;10.622;2023-03-13T18:27:14;17.20;99.90
23731;DHT22;12046;44.702;10.622;2023-03-13T18:29:41;17.20;99.90
23731;DHT22;12046;44.702;10.622;2023-03-13T18:32:08;17.20;99.90
23731;DHT22;12046;44.702;10.622;2023-03-13T18:34:34;17.20;99.90
23731;DHT22;12046;44.702;10.622;2023-03-13T18:37:00;17.20;99.90
23731;DHT22;12046;44.702;10.622;2023-03-13T18:39:30;17.20;1.00
23731;DHT22;12046;44.702;10.622;2023-03-13T18:41:56;17.10;1.00
23731;DHT22;12046;44.702;10.622;2023-03-13T18:44:22;17.10;78.30
23731;DHT22;12046;44.702;10.622;2023-03-13T18:46:49;17.10;99.90
23731;DHT22;12046;44.702;10.622;2023-03-13T18:49:17;17.00;99.90